createdAt,value
2023-01-22T00:01:14.500Z,100.00
2023-01-22T00:03:45.549Z,100.00
2023-01-22T00:06:14.470Z,100.00
2023-01-22T00:08:44.189Z,100.00
2023-01-22T00:11:12.818Z,100.00
2023-01-22T00:13:41.495Z,100.00
2023-01-22T00:16:11.239Z,100.00
2023-01-22T00:18:39.115Z,100.00
2023-01-22T00:21:07.718Z,100.00
2023-01-22T00:23:35.602Z,100.00
2023-01-22T00:26:07.967Z,100.00
2023-01-22T00:28:37.643Z,100.00
2023-01-22T00:31:07.372Z,100.00
2023-01-22T00:33:35.427Z,100.00
2023-01-22T00:36:05.976Z,100.00
2023-01-22T00:38:34.072Z,100.00
2023-01-22T00:41:02.920Z,100.00
2023-01-22T00:43:33.626Z,100.00
2023-01-22T00:46:02.998Z,100.00
2023-01-22T00:48:30.983Z,100.00
2023-01-22T00:50:59.038Z,100.00
2023-01-22T00:53:26.985Z,100.00
2023-01-22T00:55:56.806Z,100.00
2023-01-22T00:58:24.772Z,100.00
2023-01-22T01:00:54.278Z,100.00
2023-01-22T01:03:30.563Z,100.00
2023-01-22T01:06:00.311Z,100.00
2023-01-22T01:08:29.816Z,100.00
2023-01-22T01:10:58.828Z,100.00
2023-01-22T01:13:27.563Z,100.00
2023-01-22T01:16:02.471Z,100.00
2023-01-22T01:18:30.794Z,100.00
2023-01-22T01:20:59.951Z,100.00
2023-01-22T01:23:29.465Z,100.00
2023-01-22T01:25:57.935Z,100.00
2023-01-22T01:28:26.083Z,100.00
2023-01-22T01:30:54.013Z,100.00
2023-01-22T01:33:23.540Z,100.00
2023-01-22T01:36:00.005Z,100.00
2023-01-22T01:38:27.958Z,100.00
2023-01-22T01:40:56.367Z,100.00
2023-01-22T01:43:24.223Z,100.00
2023-01-22T01:45:52.259Z,100.00
2023-01-22T01:48:29.060Z,100.00
2023-01-22T01:51:02.682Z,100.00
2023-01-22T01:53:30.777Z,100.00
2023-01-22T01:56:00.680Z,100.00
2023-01-22T01:58:34.191Z,100.00
2023-01-22T02:01:09.367Z,100.00
2023-01-22T02:03:40.280Z,100.00
2023-01-22T02:06:12.772Z,100.00
2023-01-22T02:08:41.605Z,100.00
2023-01-22T02:11:09.978Z,100.00
2023-01-22T02:13:40.966Z,100.00
2023-01-22T02:16:10.432Z,100.00
2023-01-22T02:18:39.716Z,100.00
2023-01-22T02:21:31.344Z,100.00
2023-01-22T02:23:59.699Z,100.00
2023-01-22T02:26:27.632Z,100.00
2023-01-22T02:28:55.543Z,100.00
2023-01-22T02:31:23.567Z,100.00
2023-01-22T02:33:51.542Z,100.00
2023-01-22T02:36:19.375Z,100.00
2023-01-22T02:38:48.803Z,100.00
2023-01-22T02:41:16.824Z,100.00
2023-01-22T02:43:44.725Z,100.00
2023-01-22T02:46:12.631Z,100.00
2023-01-22T02:48:40.579Z,100.00
2023-01-22T02:51:08.499Z,100.00
2023-01-22T02:53:36.572Z,100.00
2023-01-22T02:56:08.411Z,100.00
2023-01-22T02:58:36.809Z,100.00
2023-01-22T03:01:20.345Z,100.00
2023-01-22T03:03:49.912Z,100.00
2023-01-22T03:06:21.558Z,100.00
2023-01-22T03:08:49.763Z,100.00
2023-01-22T03:11:18.992Z,100.00
2023-01-22T03:14:04.744Z,100.00
2023-01-22T03:16:50.425Z,100.00
2023-01-22T03:19:35.671Z,100.00
2023-01-22T03:22:03.607Z,100.00
2023-01-22T03:24:31.562Z,100.00
2023-01-22T03:27:01.007Z,100.00
2023-01-22T03:29:28.917Z,100.00
2023-01-22T03:31:56.821Z,100.00
2023-01-22T03:34:26.820Z,100.00
2023-01-22T03:36:54.723Z,100.00
2023-01-22T03:39:22.673Z,100.00
2023-01-22T03:41:50.591Z,100.00
2023-01-22T03:44:19.958Z,100.00
2023-01-22T03:46:47.884Z,100.00
2023-01-22T03:49:15.997Z,100.00
2023-01-22T03:51:44.444Z,100.00
2023-01-22T03:54:13.324Z,100.00
2023-01-22T03:56:42.028Z,100.00
2023-01-22T03:59:10.443Z,100.00
2023-01-22T04:01:39.825Z,100.00
2023-01-22T04:04:07.720Z,100.00
2023-01-22T04:06:35.844Z,100.00
2023-01-22T04:09:03.766Z,100.00
2023-01-22T04:11:31.629Z,100.00
2023-01-22T04:13:59.525Z,100.00
2023-01-22T04:16:27.468Z,100.00
2023-01-22T04:18:56.775Z,100.00
2023-01-22T04:21:24.692Z,100.00
2023-01-22T04:23:52.537Z,100.00
2023-01-22T04:26:20.372Z,100.00
2023-01-22T04:28:48.235Z,100.00
2023-01-22T04:31:16.238Z,100.00
2023-01-22T04:33:44.316Z,100.00
2023-01-22T04:36:13.629Z,100.00
2023-01-22T04:38:41.493Z,100.00
2023-01-22T04:41:09.317Z,100.00
2023-01-22T04:43:37.245Z,100.00
2023-01-22T04:46:05.260Z,100.00
2023-01-22T04:48:33.188Z,100.00
2023-01-22T04:51:01.045Z,100.00
2023-01-22T04:53:30.377Z,100.00
2023-01-22T04:55:58.196Z,100.00
2023-01-22T04:58:26.140Z,100.00
2023-01-22T05:00:58.017Z,100.00
2023-01-22T05:03:26.164Z,100.00
2023-01-22T05:05:54.017Z,100.00
2023-01-22T05:08:22.037Z,100.00
2023-01-22T05:10:51.295Z,100.00
2023-01-22T05:13:19.146Z,100.00
2023-01-22T05:15:47.035Z,100.00
2023-01-22T05:18:14.940Z,100.00
2023-01-22T05:20:42.850Z,100.00
2023-01-22T05:23:10.809Z,100.00
2023-01-22T05:25:38.627Z,100.00
2023-01-22T05:28:07.982Z,100.00
2023-01-22T05:30:35.887Z,100.00
2023-01-22T05:33:03.829Z,100.00
2023-01-22T05:35:31.693Z,100.00
2023-01-22T05:37:59.534Z,100.00
2023-01-22T05:40:27.439Z,100.00
2023-01-22T05:42:55.671Z,100.00
2023-01-22T05:45:24.909Z,100.00
2023-01-22T05:47:54.243Z,100.00
2023-01-22T05:50:22.689Z,100.00
2023-01-22T05:52:55.569Z,100.00
2023-01-22T05:55:23.927Z,100.00
2023-01-22T05:57:52.158Z,100.00
2023-01-22T06:00:20.723Z,100.00
2023-01-22T06:02:50.151Z,100.00
2023-01-22T06:05:18.097Z,100.00
2023-01-22T06:07:45.983Z,100.00
2023-01-22T06:10:13.861Z,100.00
2023-01-22T06:12:41.803Z,100.00
2023-01-22T06:15:10.962Z,100.00
2023-01-22T06:17:39.079Z,100.00
2023-01-22T06:20:10.818Z,100.00
2023-01-22T06:22:38.667Z,100.00
2023-01-22T06:25:08.882Z,100.00
2023-01-22T06:27:36.758Z,100.00
2023-01-22T06:30:05.009Z,100.00
2023-01-22T06:32:32.867Z,100.00
2023-01-22T06:35:00.715Z,100.00
2023-01-22T06:37:29.946Z,100.00
2023-01-22T06:39:57.793Z,100.00
2023-01-22T06:42:25.755Z,100.00
2023-01-22T06:44:53.632Z,100.00
2023-01-22T06:47:21.448Z,100.00
2023-01-22T06:49:49.319Z,100.00
2023-01-22T06:52:17.273Z,100.00
2023-01-22T06:54:46.527Z,100.00
2023-01-22T06:57:14.588Z,100.00
2023-01-22T06:59:42.514Z,100.00
2023-01-22T07:02:16.784Z,100.00
2023-01-22T07:04:44.888Z,100.00
2023-01-22T07:07:13.715Z,100.00
2023-01-22T07:09:41.624Z,100.00
2023-01-22T07:12:10.887Z,100.00
2023-01-22T07:14:38.748Z,100.00
2023-01-22T07:17:06.817Z,100.00
2023-01-22T07:19:34.731Z,100.00
2023-01-22T07:22:02.643Z,100.00
2023-01-22T07:24:30.556Z,100.00
2023-01-22T07:26:58.512Z,100.00
2023-01-22T07:29:27.817Z,100.00
2023-01-22T07:31:55.892Z,100.00
2023-01-22T07:34:23.920Z,100.00
2023-01-22T07:36:51.787Z,100.00
2023-01-22T07:39:19.819Z,100.00
2023-01-22T07:41:47.668Z,100.00
2023-01-22T07:44:16.367Z,100.00
2023-01-22T07:46:45.704Z,100.00
2023-01-22T07:49:13.767Z,100.00
2023-01-22T07:51:41.663Z,100.00
2023-01-22T07:54:09.574Z,100.00
2023-01-22T07:56:37.494Z,100.00
2023-01-22T07:59:06.022Z,100.00
2023-01-22T08:01:33.899Z,100.00
2023-01-22T08:04:03.401Z,100.00
2023-01-22T08:06:31.251Z,100.00
2023-01-22T08:08:59.650Z,100.00
2023-01-22T08:11:27.701Z,100.00
2023-01-22T08:13:55.658Z,100.00
2023-01-22T08:16:23.616Z,100.00
2023-01-22T08:18:51.552Z,100.00
2023-01-22T08:21:20.889Z,100.00
2023-01-22T08:23:49.381Z,100.00
2023-01-22T08:26:17.530Z,100.00
2023-01-22T08:28:45.385Z,100.00
2023-01-22T08:31:26.234Z,100.00
2023-01-22T08:33:55.549Z,100.00
2023-01-22T08:36:25.075Z,100.00
2023-01-22T08:38:52.912Z,100.00
2023-01-22T08:41:20.907Z,100.00
2023-01-22T08:43:48.815Z,100.00
2023-01-22T08:46:16.909Z,100.00
2023-01-22T08:48:44.998Z,100.00
2023-01-22T08:51:14.721Z,100.00
2023-01-22T08:53:46.522Z,100.00
2023-01-22T08:56:15.480Z,100.00
2023-01-22T08:58:43.373Z,100.00
2023-01-22T09:01:16.748Z,100.00
2023-01-22T09:03:44.835Z,100.00
2023-01-22T09:06:13.448Z,100.00
2023-01-22T09:08:41.484Z,100.00
2023-01-22T09:11:10.827Z,100.00
2023-01-22T09:13:39.248Z,100.00
2023-01-22T09:16:10.885Z,100.00
2023-01-22T09:18:39.070Z,100.00
2023-01-22T09:21:08.211Z,100.00
2023-01-22T09:23:36.411Z,100.00
2023-01-22T09:26:04.309Z,100.00
2023-01-22T09:28:36.916Z,100.00
2023-01-22T09:31:05.079Z,100.00
2023-01-22T09:33:33.199Z,100.00
2023-01-22T09:36:11.699Z,100.00
2023-01-22T09:38:40.219Z,100.00
2023-01-22T09:41:17.560Z,100.00
2023-01-22T09:43:52.194Z,100.00
2023-01-22T09:46:26.244Z,100.00
2023-01-22T09:48:58.878Z,100.00
2023-01-22T09:51:27.118Z,100.00
2023-01-22T09:53:59.572Z,100.00
2023-01-22T09:56:37.303Z,100.00
2023-01-22T09:59:08.781Z,100.00
2023-01-22T10:01:38.177Z,100.00
2023-01-22T10:04:15.314Z,100.00
2023-01-22T10:06:45.593Z,100.00
2023-01-22T10:09:18.325Z,100.00
2023-01-22T10:11:51.197Z,100.00
2023-01-22T10:14:24.906Z,100.00
2023-01-22T10:16:53.087Z,100.00
2023-01-22T10:19:24.934Z,100.00
2023-01-22T10:22:00.494Z,100.00
2023-01-22T10:24:29.223Z,100.00
2023-01-22T10:26:59.497Z,100.00
2023-01-22T10:29:32.566Z,100.00
2023-01-22T10:32:02.304Z,100.00
2023-01-22T10:34:32.905Z,100.00
2023-01-22T10:37:04.729Z,100.00
2023-01-22T10:39:40.878Z,100.00
2023-01-22T10:42:17.666Z,100.00
2023-01-22T10:44:47.830Z,100.00
2023-01-22T10:47:22.353Z,100.00
2023-01-22T10:49:58.151Z,100.00
2023-01-22T10:52:34.773Z,100.00
2023-01-22T10:55:05.799Z,100.00
2023-01-22T10:57:36.764Z,100.00
2023-01-22T11:00:23.152Z,100.00
2023-01-22T11:02:52.271Z,100.00
2023-01-22T11:05:21.799Z,100.00
2023-01-22T11:07:54.941Z,100.00
2023-01-22T11:10:26.980Z,100.00
2023-01-22T11:12:59.740Z,100.00
2023-01-22T11:15:45.438Z,100.00
2023-01-22T11:18:19.617Z,100.00
2023-01-22T11:20:51.683Z,100.00
2023-01-22T11:23:28.371Z,100.00
2023-01-22T11:26:04.379Z,100.00
2023-01-22T11:28:42.554Z,100.00
2023-01-22T11:31:26.032Z,100.00
2023-01-22T11:34:18.056Z,100.00
2023-01-22T11:36:51.307Z,100.00
2023-01-22T11:39:51.571Z,100.00
2023-01-22T11:42:34.730Z,96.56
2023-01-22T11:45:15.048Z,94.66
2023-01-22T11:48:13.222Z,91.93
2023-01-22T11:50:46.616Z,96.12
2023-01-22T11:53:38.445Z,97.87
2023-01-22T11:56:18.858Z,98.27
2023-01-22T11:58:55.880Z,96.55
2023-01-22T12:01:40.834Z,92.36
2023-01-22T12:04:40.730Z,92.76
2023-01-22T12:07:36.701Z,91.17
2023-01-22T12:10:26.247Z,91.45
2023-01-22T12:13:00.671Z,89.17
2023-01-22T12:15:43.480Z,90.42
2023-01-22T12:18:41.323Z,89.57
2023-01-22T12:21:22.001Z,86.57
2023-01-22T12:23:55.326Z,83.92
2023-01-22T12:26:27.784Z,88.03
2023-01-22T12:29:03.785Z,88.26
2023-01-22T12:31:35.747Z,87.33
2023-01-22T12:34:11.564Z,83.79
2023-01-22T12:36:41.811Z,86.51
2023-01-22T12:39:22.817Z,84.67
2023-01-22T12:41:58.680Z,84.61
2023-01-22T12:44:38.707Z,84.52
2023-01-22T12:47:16.095Z,84.74
2023-01-22T12:49:48.786Z,85.23
2023-01-22T12:52:37.840Z,87.25
2023-01-22T12:55:24.541Z,84.30
2023-01-22T12:57:52.491Z,88.34
2023-01-22T13:00:35.995Z,88.27
2023-01-22T13:03:05.955Z,89.94
2023-01-22T13:05:44.864Z,91.93
2023-01-22T13:08:40.142Z,95.08
2023-01-22T13:11:10.415Z,94.98
2023-01-22T13:13:45.188Z,93.02
2023-01-22T13:16:22.272Z,93.02
2023-01-22T13:18:52.268Z,94.62
2023-01-22T13:21:26.729Z,95.25
2023-01-22T13:24:00.548Z,95.47
2023-01-22T13:26:30.803Z,94.94
2023-01-22T13:29:02.751Z,95.86
2023-01-22T13:31:32.986Z,95.66
2023-01-22T13:34:08.824Z,97.34
2023-01-22T13:36:39.910Z,96.79
2023-01-22T13:39:17.904Z,97.32
2023-01-22T13:41:47.041Z,96.50
2023-01-22T13:44:19.761Z,97.31
2023-01-22T13:46:48.276Z,98.83
2023-01-22T13:49:24.616Z,98.42
2023-01-22T13:51:53.667Z,98.82
2023-01-22T13:54:32.092Z,98.57
2023-01-22T13:57:03.624Z,98.82
2023-01-22T13:59:35.133Z,99.95
2023-01-22T14:02:13.990Z,100.00
2023-01-22T14:04:43.709Z,100.00
2023-01-22T14:07:18.936Z,100.00
2023-01-22T14:09:48.368Z,100.00
2023-01-22T14:12:18.211Z,100.00
2023-01-22T14:14:46.753Z,100.00
2023-01-22T14:17:26.806Z,100.00
2023-01-22T14:19:54.750Z,100.00
2023-01-22T14:22:24.214Z,100.00
2023-01-22T14:24:53.613Z,100.00
2023-01-22T14:27:22.564Z,100.00
2023-01-22T14:29:50.519Z,100.00
2023-01-22T14:32:18.517Z,100.00
2023-01-22T14:34:46.477Z,100.00
2023-01-22T14:37:16.589Z,100.00
2023-01-22T14:39:46.203Z,100.00
2023-01-22T14:42:18.231Z,100.00
2023-01-22T14:44:46.116Z,100.00
2023-01-22T14:47:14.021Z,100.00
2023-01-22T14:49:43.001Z,100.00
2023-01-22T14:52:27.392Z,100.00
2023-01-22T14:54:56.996Z,100.00
2023-01-22T14:57:27.967Z,100.00
2023-01-22T14:59:57.186Z,100.00
2023-01-22T15:02:25.667Z,100.00
2023-01-22T15:05:29.825Z,100.00
2023-01-22T15:07:58.872Z,100.00
2023-01-22T15:14:32.346Z,100.00
2023-01-22T15:17:00.212Z,100.00
2023-01-22T15:19:30.662Z,100.00
2023-01-22T15:22:04.446Z,100.00
2023-01-22T15:24:32.347Z,100.00
2023-01-22T15:27:00.253Z,100.00
2023-01-22T15:29:29.799Z,100.00
2023-01-22T15:31:58.342Z,100.00
2023-01-22T15:34:26.273Z,100.00
2023-01-22T15:36:54.426Z,100.00
2023-01-22T15:39:22.304Z,100.00
2023-01-22T15:41:50.528Z,100.00
2023-01-22T15:44:18.467Z,100.00
2023-01-22T15:46:47.920Z,100.00
2023-01-22T15:49:18.266Z,100.00
2023-01-22T15:51:46.154Z,100.00
2023-01-22T15:54:18.296Z,100.00
2023-01-22T15:56:46.409Z,100.00
2023-01-22T15:59:14.423Z,100.00
2023-01-22T16:01:42.601Z,100.00
2023-01-22T16:04:13.535Z,100.00
2023-01-22T16:06:43.502Z,100.00
2023-01-22T16:09:11.932Z,100.00
2023-01-22T16:11:39.796Z,100.00
2023-01-22T16:14:07.743Z,100.00
2023-01-22T16:16:40.202Z,100.00
2023-01-22T16:19:14.417Z,100.00
2023-01-22T16:21:43.663Z,100.00
2023-01-22T16:24:12.102Z,100.00
2023-01-22T16:26:40.143Z,100.00
2023-01-22T16:29:08.392Z,100.00
2023-01-22T16:31:37.801Z,100.00
2023-01-22T16:34:12.635Z,100.00
2023-01-22T16:36:41.406Z,100.00
2023-01-22T16:39:11.424Z,100.00
2023-01-22T16:41:39.590Z,100.00
2023-01-22T16:44:09.868Z,100.00
2023-01-22T16:46:39.457Z,100.00
2023-01-22T16:49:09.773Z,100.00
2023-01-22T16:51:40.804Z,100.00
2023-01-22T16:54:09.118Z,100.00
2023-01-22T16:56:45.612Z,100.00
2023-01-22T16:59:13.632Z,100.00
2023-01-22T17:01:42.871Z,100.00
2023-01-22T17:04:10.941Z,100.00
2023-01-22T17:06:43.471Z,100.00
2023-01-22T17:09:16.334Z,100.00
2023-01-22T17:11:46.896Z,100.00
2023-01-22T17:14:18.344Z,100.00
2023-01-22T17:16:47.054Z,100.00
2023-01-22T17:19:15.235Z,100.00
2023-01-22T17:21:44.696Z,100.00
2023-01-22T17:24:14.030Z,100.00
2023-01-22T17:26:43.206Z,100.00
2023-01-22T17:29:11.731Z,100.00
2023-01-22T17:31:39.781Z,100.00
2023-01-22T17:34:11.156Z,100.00
2023-01-22T17:36:41.763Z,100.00
2023-01-22T17:39:16.083Z,100.00
2023-01-22T17:41:44.308Z,100.00
2023-01-22T17:44:12.504Z,100.00
2023-01-22T17:46:41.119Z,100.00
2023-01-22T17:49:11.244Z,100.00
2023-01-22T17:51:39.458Z,100.00
2023-01-22T17:54:07.984Z,100.00
2023-01-22T17:56:43.023Z,100.00
2023-01-22T17:59:13.069Z,100.00
2023-01-22T18:01:41.997Z,100.00
2023-01-22T18:04:12.709Z,100.00
2023-01-22T18:06:43.151Z,100.00
2023-01-22T18:09:12.915Z,100.00
2023-01-22T18:11:43.166Z,100.00
2023-01-22T18:14:15.888Z,100.00
2023-01-22T18:16:44.779Z,100.00
2023-01-22T18:19:12.824Z,100.00
2023-01-22T18:21:44.798Z,100.00
2023-01-22T18:24:14.462Z,100.00
2023-01-22T18:26:43.758Z,100.00
2023-01-22T18:29:12.680Z,100.00
2023-01-22T18:31:41.877Z,100.00
2023-01-22T18:34:14.705Z,100.00
2023-01-22T18:36:44.155Z,100.00
2023-01-22T18:39:15.002Z,100.00
2023-01-22T18:41:48.792Z,100.00
2023-01-22T18:44:19.618Z,100.00
2023-01-22T18:46:51.843Z,100.00
2023-01-22T18:49:20.508Z,100.00
2023-01-22T18:51:48.642Z,100.00
2023-01-22T18:54:17.872Z,100.00
2023-01-22T18:56:47.349Z,100.00
2023-01-22T18:59:15.266Z,100.00
2023-01-22T19:01:49.998Z,100.00
2023-01-22T19:04:21.723Z,100.00
2023-01-22T19:06:53.173Z,100.00
2023-01-22T19:09:22.058Z,100.00
2023-01-22T19:11:53.074Z,100.00
2023-01-22T19:14:21.968Z,100.00
2023-01-22T19:16:53.383Z,100.00
2023-01-22T19:19:25.083Z,100.00
2023-01-22T19:21:55.215Z,100.00
2023-01-22T19:24:26.835Z,100.00
2023-01-22T19:26:57.148Z,100.00
2023-01-22T19:29:26.911Z,100.00
2023-01-22T19:31:56.841Z,100.00
2023-01-22T19:34:27.407Z,100.00
2023-01-22T19:36:57.710Z,100.00
2023-01-22T19:39:28.766Z,100.00
2023-01-22T19:42:01.778Z,100.00
2023-01-22T19:44:30.376Z,100.00
2023-01-22T19:46:58.298Z,100.00
2023-01-22T19:49:26.297Z,100.00
2023-01-22T19:51:54.318Z,100.00
2023-01-22T19:54:22.589Z,100.00
2023-01-22T19:56:50.606Z,100.00
2023-01-22T19:59:23.056Z,100.00
2023-01-22T20:01:51.689Z,100.00
2023-01-22T20:04:26.374Z,100.00
2023-01-22T20:06:57.784Z,100.00
2023-01-22T20:09:26.139Z,100.00
2023-01-22T20:11:58.487Z,100.00
2023-01-22T20:14:30.930Z,100.00
2023-01-22T20:16:59.496Z,100.00
2023-01-22T20:19:27.844Z,100.00
2023-01-22T20:21:56.459Z,100.00
2023-01-22T20:24:24.528Z,100.00
2023-01-22T20:26:55.125Z,100.00
2023-01-22T20:29:23.127Z,100.00
2023-01-22T20:31:53.450Z,100.00
2023-01-22T20:34:23.177Z,100.00
2023-01-22T20:36:52.162Z,100.00
2023-01-22T20:39:20.778Z,100.00
2023-01-22T20:41:51.286Z,100.00
2023-01-22T20:44:19.760Z,100.00
2023-01-22T20:46:49.251Z,100.00
2023-01-22T20:49:19.342Z,100.00
2023-01-22T20:51:47.166Z,100.00
2023-01-22T20:54:15.315Z,100.00
2023-01-22T20:56:43.260Z,100.00
2023-01-22T20:59:13.196Z,100.00
2023-01-22T21:01:41.190Z,100.00
2023-01-22T21:04:09.857Z,100.00
2023-01-22T21:06:40.457Z,100.00
2023-01-22T21:09:09.287Z,100.00
2023-01-22T21:11:39.552Z,100.00
2023-01-22T21:14:09.547Z,100.00
2023-01-22T21:16:39.414Z,100.00
2023-01-22T21:19:11.494Z,100.00
2023-01-22T21:21:40.730Z,100.00
2023-01-22T21:24:09.202Z,100.00
2023-01-22T21:26:37.770Z,100.00
2023-01-22T21:29:08.477Z,100.00
2023-01-22T21:31:37.471Z,100.00
2023-01-22T21:34:08.001Z,100.00
2023-01-22T21:36:38.094Z,100.00
2023-01-22T21:39:09.439Z,100.00
2023-01-22T21:41:38.694Z,100.00
2023-01-22T21:44:24.748Z,100.00
2023-01-22T21:46:53.036Z,100.00
2023-01-22T21:49:24.374Z,100.00
2023-01-22T21:51:55.959Z,100.00
2023-01-22T21:54:27.340Z,100.00
2023-01-22T21:56:56.081Z,100.00
2023-01-22T21:59:24.514Z,100.00
2023-01-22T22:01:54.511Z,100.00
2023-01-22T22:04:24.323Z,100.00
2023-01-22T22:06:52.222Z,100.00
2023-01-22T22:09:23.435Z,100.00
2023-01-22T22:11:55.717Z,100.00
2023-01-22T22:14:24.467Z,100.00
2023-01-22T22:16:53.390Z,100.00
2023-01-22T22:19:22.796Z,100.00
2023-01-22T22:21:51.355Z,100.00
2023-01-22T22:24:20.515Z,100.00
2023-01-22T22:26:48.560Z,100.00
2023-01-22T22:29:17.825Z,100.00
2023-01-22T22:31:45.749Z,100.00
2023-01-22T22:34:13.639Z,100.00
2023-01-22T22:36:41.684Z,100.00
2023-01-22T22:39:09.553Z,100.00
2023-01-22T22:41:38.792Z,100.00
2023-01-22T22:44:07.555Z,100.00
2023-01-22T22:46:38.617Z,100.00
2023-01-22T22:49:07.254Z,100.00
2023-01-22T22:51:37.072Z,100.00
2023-01-22T22:54:07.699Z,100.00
2023-01-22T22:56:35.851Z,100.00
2023-01-22T22:59:05.257Z,100.00
2023-01-22T23:01:33.587Z,100.00
2023-01-22T23:04:02.942Z,100.00
2023-01-22T23:06:32.920Z,100.00
2023-01-22T23:09:01.532Z,100.00
2023-01-22T23:11:33.247Z,100.00
2023-01-22T23:14:02.906Z,100.00
2023-01-22T23:16:33.055Z,100.00
2023-01-22T23:19:04.613Z,100.00
2023-01-22T23:21:35.156Z,100.00
2023-01-22T23:24:04.161Z,100.00
2023-01-22T23:26:32.568Z,100.00
2023-01-22T23:29:02.280Z,100.00
2023-01-22T23:31:31.430Z,100.00
2023-01-22T23:34:01.296Z,100.00
2023-01-22T23:36:32.710Z,100.00
2023-01-22T23:39:00.572Z,100.00
2023-01-22T23:41:28.803Z,100.00
2023-01-22T23:43:56.659Z,100.00
2023-01-22T23:46:26.430Z,100.00
2023-01-22T23:48:55.648Z,100.00
2023-01-22T23:51:23.639Z,100.00
2023-01-22T23:53:54.173Z,100.00
2023-01-22T23:56:25.009Z,100.00
2023-01-22T23:58:55.188Z,100.00
